sensor_id;sensor_type;location;lat;lon;timestamp;temperature;humidity
47520;DHT22;33252;48.122;11.538;2022-10-18T00:00:43;12.90;99.90
47520;DHT22;33252;48.122;11.538;2022-10-18T00:03:09;13.00;99.90
47520;DHT22;33252;48.122;11.538;2022-10-18T00:05:35;12.90;99.90
47520;DHT22;33252;48.122;11.538;2022-10-18T00:08:00;13.00;99.90
47520;DHT22;33252;48.122;11.538;2022-10-18T00:10:26;13.10;99.90
47520;DHT22;33252;48.122;11.538;2022-10-18T00:12:52;13.10;99.90
47520;DHT22;33252;48.122;11.538;2022-10-18T00:15:18;13.10;99.90
47520;DHT22;33252;48.122;11.538;2022-10-18T00:17:44;12.90;99.90
47520;DHT22;33252;48.122;11.538;2022-10-18T00:20:10;12.90;99.90
47520;DHT22;33252;48.122;11.538;2022-10-18T00:22:40;12.80;99.90
47520;DHT22;33252;48.122;11.538;2022-10-18T00:25:07;12.90;99.90
47520;DHT22;33252;48.122;11.538;2022-10-18T00:27:33;12.80;99.90
47520;DHT22;33252;48.122;11.538;2022-10-18T00:29:59;12.70;99.90
47520;DHT22;33252;48.122;11.538;2022-10-18T00:32:26;12.90;99.90
47520;DHT22;33252;48.122;11.538;2022-10-18T00:34:51;13.00;99.90
47520;DHT22;33252;48.122;11.538;2022-10-18T00:37:17;13.00;99.90
47520;DHT22;33252;48.122;11.538;2022-10-18T00:39:44;12.80;99.90
47520;DHT22;33252;48.122;11.538;2022-10-18T00:42:20;12.80;99.90
47520;DHT22;33252;48.122;11.538;2022-10-18T00:47:16;12.60;99.90
47520;DHT22;33252;48.122;11.538;2022-10-18T00:49:51;12.60;99.90
47520;DHT22;33252;48.122;11.538;2022-10-18T00:52:25;12.60;99.90
47520;DHT22;33252;48.122;11.538;2022-10-18T00:54:53;12.60;99.90
47520;DHT22;33252;48.122;11.538;2022-10-18T00:57:20;12.70;99.90
47520;DHT22;33252;48.122;11.538;2022-10-18T00:59:46;12.80;99.90
47520;DHT22;33252;48.122;11.538;2022-10-18T01:02:12;12.80;99.90
47520;DHT22;33252;48.122;11.538;2022-10-18T01:04:46;12.70;99.90
47520;DHT22;33252;48.122;11.538;2022-10-18T01:07:40;12.70;99.90
47520;DHT22;33252;48.122;11.538;2022-10-18T01:10:25;12.60;99.90
47520;DHT22;33252;48.122;11.538;2022-10-18T01:18:58;12.40;99.90
47520;DHT22;33252;48.122;11.538;2022-10-18T01:21:37;12.50;99.90
47520;DHT22;33252;48.122;11.538;2022-10-18T01:32:29;12.30;99.90
47520;DHT22;33252;48.122;11.538;2022-10-18T01:35:01;12.40;99.90
47520;DHT22;33252;48.122;11.538;2022-10-18T01:37:29;12.30;99.90
47520;DHT22;33252;48.122;11.538;2022-10-18T01:39:57;12.20;99.90
47520;DHT22;33252;48.122;11.538;2022-10-18T01:42:24;12.20;99.90
47520;DHT22;33252;48.122;11.538;2022-10-18T01:44:51;12.20;99.90
47520;DHT22;33252;48.122;11.538;2022-10-18T01:47:18;12.20;99.90
47520;DHT22;33252;48.122;11.538;2022-10-18T01:49:45;12.10;99.90
47520;DHT22;33252;48.122;11.538;2022-10-18T01:52:15;12.00;99.90
47520;DHT22;33252;48.122;11.538;2022-10-18T01:54:44;12.00;99.90
47520;DHT22;33252;48.122;11.538;2022-10-18T01:57:36;12.00;99.90
47520;DHT22;33252;48.122;11.538;2022-10-18T02:00:23;12.10;99.90
47520;DHT22;33252;48.122;11.538;2022-10-18T02:02:56;12.00;99.90
47520;DHT22;33252;48.122;11.538;2022-10-18T02:10:55;12.00;99.90
47520;DHT22;33252;48.122;11.538;2022-10-18T02:13:26;11.90;99.90
47520;DHT22;33252;48.122;11.538;2022-10-18T02:15:58;11.90;99.90
47520;DHT22;33252;48.122;11.538;2022-10-18T02:18:29;12.00;99.90
47520;DHT22;33252;48.122;11.538;2022-10-18T02:20:59;12.00;99.90
47520;DHT22;33252;48.122;11.538;2022-10-18T02:23:26;12.00;99.90
47520;DHT22;33252;48.122;11.538;2022-10-18T02:25:52;12.10;99.90
47520;DHT22;33252;48.122;11.538;2022-10-18T02:28:18;12.00;99.90
47520;DHT22;33252;48.122;11.538;2022-10-18T02:31:50;12.10;99.90
47520;DHT22;33252;48.122;11.538;2022-10-18T02:36:32;12.00;99.90
47520;DHT22;33252;48.122;11.538;2022-10-18T02:39:03;12.00;99.90
47520;DHT22;33252;48.122;11.538;2022-10-18T02:41:31;11.90;99.90
47520;DHT22;33252;48.122;11.538;2022-10-18T02:43:57;12.00;99.90
47520;DHT22;33252;48.122;11.538;2022-10-18T02:46:23;12.10;99.90
47520;DHT22;33252;48.122;11.538;2022-10-18T02:48:48;12.10;99.90
47520;DHT22;33252;48.122;11.538;2022-10-18T02:51:14;12.00;99.90
47520;DHT22;33252;48.122;11.538;2022-10-18T02:53:40;12.00;99.90
47520;DHT22;33252;48.122;11.538;2022-10-18T02:56:06;12.00;99.90
47520;DHT22;33252;48.122;11.538;2022-10-18T02:58:32;11.90;99.90
47520;DHT22;33252;48.122;11.538;2022-10-18T03:00:57;12.00;99.90
47520;DHT22;33252;48.122;11.538;2022-10-18T03:03:23;12.00;99.90
47520;DHT22;33252;48.122;11.538;2022-10-18T03:05:50;11.90;99.90
47520;DHT22;33252;48.122;11.538;2022-10-18T03:08:16;12.00;99.90
47520;DHT22;33252;48.122;11.538;2022-10-18T03:10:43;12.00;99.90
47520;DHT22;33252;48.122;11.538;2022-10-18T03:13:09;12.00;99.90
47520;DHT22;33252;48.122;11.538;2022-10-18T03:15:35;11.90;99.90
47520;DHT22;33252;48.122;11.538;2022-10-18T03:18:01;11.80;99.90
47520;DHT22;33252;48.122;11.538;2022-10-18T03:20:27;11.80;99.90
47520;DHT22;33252;48.122;11.538;2022-10-18T03:22:52;11.70;99.90
47520;DHT22;33252;48.122;11.538;2022-10-18T03:25:18;11.80;99.90
47520;DHT22;33252;48.122;11.538;2022-10-18T03:27:44;11.90;99.90
47520;DHT22;33252;48.122;11.538;2022-10-18T03:30:10;11.90;99.90
47520;DHT22;33252;48.122;11.538;2022-10-18T03:32:39;12.00;99.90
47520;DHT22;33252;48.122;11.538;2022-10-18T03:35:06;12.00;99.90
47520;DHT22;33252;48.122;11.538;2022-10-18T03:37:32;11.90;99.90
47520;DHT22;33252;48.122;11.538;2022-10-18T03:39:58;11.80;99.90
47520;DHT22;33252;48.122;11.538;2022-10-18T03:42:23;11.90;99.90
47520;DHT22;33252;48.122;11.538;2022-10-18T03:44:49;11.90;99.90
47520;DHT22;33252;48.122;11.538;2022-10-18T03:47:15;11.90;99.90
47520;DHT22;33252;48.122;11.538;2022-10-18T03:49:40;11.90;99.90
47520;DHT22;33252;48.122;11.538;2022-10-18T03:52:06;11.80;99.90
47520;DHT22;33252;48.122;11.538;2022-10-18T03:54:32;11.90;99.90
47520;DHT22;33252;48.122;11.538;2022-10-18T03:56:57;11.80;99.90
47520;DHT22;33252;48.122;11.538;2022-10-18T03:59:23;11.80;99.90
47520;DHT22;33252;48.122;11.538;2022-10-18T04:01:49;11.90;99.90
47520;DHT22;33252;48.122;11.538;2022-10-18T04:04:14;11.80;99.90
47520;DHT22;33252;48.122;11.538;2022-10-18T04:06:41;11.80;99.90
47520;DHT22;33252;48.122;11.538;2022-10-18T04:09:07;11.90;99.90
47520;DHT22;33252;48.122;11.538;2022-10-18T04:11:32;11.80;99.90
47520;DHT22;33252;48.122;11.538;2022-10-18T04:13:58;11.90;99.90
47520;DHT22;33252;48.122;11.538;2022-10-18T04:16:24;12.00;99.90
47520;DHT22;33252;48.122;11.538;2022-10-18T04:18:49;12.10;99.90
47520;DHT22;33252;48.122;11.538;2022-10-18T04:21:15;12.10;99.90
47520;DHT22;33252;48.122;11.538;2022-10-18T04:23:41;12.10;99.90
47520;DHT22;33252;48.122;11.538;2022-10-18T04:26:07;12.00;99.90
47520;DHT22;33252;48.122;11.538;2022-10-18T04:28:33;12.10;99.90
47520;DHT22;33252;48.122;11.538;2022-10-18T04:30:59;12.20;99.90
47520;DHT22;33252;48.122;11.538;2022-10-18T04:33:24;12.20;99.90
47520;DHT22;33252;48.122;11.538;2022-10-18T04:35:51;12.20;99.90
47520;DHT22;33252;48.122;11.538;2022-10-18T04:38:18;12.20;99.90
47520;DHT22;33252;48.122;11.538;2022-10-18T04:40:44;12.10;99.90
47520;DHT22;33252;48.122;11.538;2022-10-18T04:43:10;12.00;99.90
47520;DHT22;33252;48.122;11.538;2022-10-18T04:45:36;12.00;99.90
47520;DHT22;33252;48.122;11.538;2022-10-18T04:48:02;12.00;99.90
47520;DHT22;33252;48.122;11.538;2022-10-18T04:50:28;12.10;99.90
47520;DHT22;33252;48.122;11.538;2022-10-18T04:52:53;12.00;99.90
47520;DHT22;33252;48.122;11.538;2022-10-18T04:55:19;12.00;99.90
47520;DHT22;33252;48.122;11.538;2022-10-18T04:57:45;12.00;99.90
47520;DHT22;33252;48.122;11.538;2022-10-18T05:00:11;12.00;99.90
47520;DHT22;33252;48.122;11.538;2022-10-18T05:02:37;12.00;99.90
47520;DHT22;33252;48.122;11.538;2022-10-18T05:05:03;12.00;99.90
47520;DHT22;33252;48.122;11.538;2022-10-18T05:07:29;12.00;99.90
47520;DHT22;33252;48.122;11.538;2022-10-18T05:09:54;12.10;99.90
47520;DHT22;33252;48.122;11.538;2022-10-18T05:12:20;12.20;99.90
47520;DHT22;33252;48.122;11.538;2022-10-18T05:14:46;12.10;99.90
47520;DHT22;33252;48.122;11.538;2022-10-18T05:17:12;12.20;99.90
47520;DHT22;33252;48.122;11.538;2022-10-18T05:19:38;12.10;99.90
47520;DHT22;33252;48.122;11.538;2022-10-18T05:22:04;12.10;99.90
47520;DHT22;33252;48.122;11.538;2022-10-18T05:24:29;12.10;99.90
47520;DHT22;33252;48.122;11.538;2022-10-18T05:26:55;12.10;99.90
47520;DHT22;33252;48.122;11.538;2022-10-18T05:29:21;12.10;99.90
47520;DHT22;33252;48.122;11.538;2022-10-18T05:31:48;12.20;99.90
47520;DHT22;33252;48.122;11.538;2022-10-18T05:34:13;12.10;99.90
47520;DHT22;33252;48.122;11.538;2022-10-18T05:36:39;12.10;99.90
47520;DHT22;33252;48.122;11.538;2022-10-18T05:39:05;12.20;99.90
47520;DHT22;33252;48.122;11.538;2022-10-18T05:41:30;12.30;99.90
47520;DHT22;33252;48.122;11.538;2022-10-18T05:43:56;12.20;99.90
47520;DHT22;33252;48.122;11.538;2022-10-18T05:46:22;12.20;99.90
47520;DHT22;33252;48.122;11.538;2022-10-18T05:48:51;12.20;99.90
47520;DHT22;33252;48.122;11.538;2022-10-18T05:51:17;12.30;99.90
47520;DHT22;33252;48.122;11.538;2022-10-18T05:53:43;12.40;99.90
47520;DHT22;33252;48.122;11.538;2022-10-18T05:56:09;12.50;99.90
47520;DHT22;33252;48.122;11.538;2022-10-18T05:58:40;12.50;99.90
47520;DHT22;33252;48.122;11.538;2022-10-18T06:01:06;12.50;99.90
47520;DHT22;33252;48.122;11.538;2022-10-18T06:03:32;12.50;99.90
47520;DHT22;33252;48.122;11.538;2022-10-18T06:08:25;12.60;99.90
47520;DHT22;33252;48.122;11.538;2022-10-18T06:10:50;12.70;99.90
47520;DHT22;33252;48.122;11.538;2022-10-18T06:13:16;12.70;99.90
47520;DHT22;33252;48.122;11.538;2022-10-18T06:15:42;12.60;99.90
47520;DHT22;33252;48.122;11.538;2022-10-18T06:18:07;12.70;99.90
47520;DHT22;33252;48.122;11.538;2022-10-18T06:20:33;12.80;99.90
47520;DHT22;33252;48.122;11.538;2022-10-18T06:22:58;12.90;99.90
47520;DHT22;33252;48.122;11.538;2022-10-18T06:25:24;12.90;99.90
47520;DHT22;33252;48.122;11.538;2022-10-18T06:27:50;12.90;99.90
47520;DHT22;33252;48.122;11.538;2022-10-18T06:30:15;13.00;99.90
47520;DHT22;33252;48.122;11.538;2022-10-18T06:32:41;13.00;99.90
47520;DHT22;33252;48.122;11.538;2022-10-18T06:35:07;13.00;99.90
47520;DHT22;33252;48.122;11.538;2022-10-18T06:37:33;13.10;99.90
47520;DHT22;33252;48.122;11.538;2022-10-18T06:39:59;13.10;99.90
47520;DHT22;33252;48.122;11.538;2022-10-18T06:42:25;13.10;99.90
47520;DHT22;33252;48.122;11.538;2022-10-18T06:44:50;13.10;99.90
47520;DHT22;33252;48.122;11.538;2022-10-18T06:47:16;13.10;99.90
47520;DHT22;33252;48.122;11.538;2022-10-18T06:49:42;13.10;99.90
47520;DHT22;33252;48.122;11.538;2022-10-18T06:52:07;13.20;99.90
47520;DHT22;33252;48.122;11.538;2022-10-18T06:54:33;13.30;99.90
47520;DHT22;33252;48.122;11.538;2022-10-18T06:56:59;13.30;99.90
47520;DHT22;33252;48.122;11.538;2022-10-18T06:59:27;13.30;99.90
47520;DHT22;33252;48.122;11.538;2022-10-18T07:01:53;13.30;99.90
47520;DHT22;33252;48.122;11.538;2022-10-18T07:04:18;13.40;99.90
47520;DHT22;33252;48.122;11.538;2022-10-18T07:06:44;13.40;99.90
47520;DHT22;33252;48.122;11.538;2022-10-18T07:09:10;13.40;99.90
47520;DHT22;33252;48.122;11.538;2022-10-18T07:11:36;13.50;99.90
47520;DHT22;33252;48.122;11.538;2022-10-18T07:14:01;13.50;99.90
47520;DHT22;33252;48.122;11.538;2022-10-18T07:16:29;13.50;99.90
47520;DHT22;33252;48.122;11.538;2022-10-18T07:18:55;13.60;99.90
47520;DHT22;33252;48.122;11.538;2022-10-18T07:21:22;13.60;99.90
47520;DHT22;33252;48.122;11.538;2022-10-18T07:23:49;13.70;99.90
47520;DHT22;33252;48.122;11.538;2022-10-18T07:26:23;13.70;99.90
47520;DHT22;33252;48.122;11.538;2022-10-18T07:28:54;13.80;99.90
47520;DHT22;33252;48.122;11.538;2022-10-18T07:31:21;13.80;99.90
47520;DHT22;33252;48.122;11.538;2022-10-18T07:33:47;13.90;99.90
47520;DHT22;33252;48.122;11.538;2022-10-18T07:36:13;13.90;99.90
47520;DHT22;33252;48.122;11.538;2022-10-18T07:38:39;14.00;99.90
47520;DHT22;33252;48.122;11.538;2022-10-18T07:41:06;14.00;99.90
47520;DHT22;33252;48.122;11.538;2022-10-18T07:43:33;14.10;99.90
47520;DHT22;33252;48.122;11.538;2022-10-18T07:46:01;14.10;99.90
47520;DHT22;33252;48.122;11.538;2022-10-18T07:48:27;14.20;99.90
47520;DHT22;33252;48.122;11.538;2022-10-18T07:50:53;14.30;99.90
47520;DHT22;33252;48.122;11.538;2022-10-18T07:53:19;14.30;99.90
47520;DHT22;33252;48.122;11.538;2022-10-18T07:55:44;14.30;99.90
47520;DHT22;33252;48.122;11.538;2022-10-18T07:58:10;14.40;99.90
47520;DHT22;33252;48.122;11.538;2022-10-18T08:00:36;14.40;99.90
47520;DHT22;33252;48.122;11.538;2022-10-18T08:03:02;14.40;99.90
47520;DHT22;33252;48.122;11.538;2022-10-18T08:05:28;14.40;99.90
47520;DHT22;33252;48.122;11.538;2022-10-18T08:07:54;14.50;99.90
47520;DHT22;33252;48.122;11.538;2022-10-18T08:10:21;14.60;99.90
47520;DHT22;33252;48.122;11.538;2022-10-18T08:12:47;14.70;99.90
47520;DHT22;33252;48.122;11.538;2022-10-18T08:15:13;14.70;99.90
47520;DHT22;33252;48.122;11.538;2022-10-18T08:17:38;14.80;99.90
47520;DHT22;33252;48.122;11.538;2022-10-18T08:20:05;14.80;99.90
47520;DHT22;33252;48.122;11.538;2022-10-18T08:22:31;14.90;99.90
47520;DHT22;33252;48.122;11.538;2022-10-18T08:24:56;15.00;99.90
47520;DHT22;33252;48.122;11.538;2022-10-18T08:27:22;15.10;99.90
47520;DHT22;33252;48.122;11.538;2022-10-18T08:29:50;15.30;99.90
47520;DHT22;33252;48.122;11.538;2022-10-18T08:32:16;15.40;99.90
47520;DHT22;33252;48.122;11.538;2022-10-18T08:34:41;15.40;99.90
47520;DHT22;33252;48.122;11.538;2022-10-18T08:37:07;15.50;99.90
47520;DHT22;33252;48.122;11.538;2022-10-18T08:39:33;15.60;99.90
47520;DHT22;33252;48.122;11.538;2022-10-18T08:44:49;16.10;99.90
47520;DHT22;33252;48.122;11.538;2022-10-18T08:47:28;16.20;99.90
47520;DHT22;33252;48.122;11.538;2022-10-18T08:49:56;16.30;99.90
47520;DHT22;33252;48.122;11.538;2022-10-18T08:52:44;16.50;99.90
47520;DHT22;33252;48.122;11.538;2022-10-18T08:55:34;16.60;99.90
47520;DHT22;33252;48.122;11.538;2022-10-18T08:58:21;16.70;99.90
47520;DHT22;33252;48.122;11.538;2022-10-18T09:04:04;17.10;99.90
47520;DHT22;33252;48.122;11.538;2022-10-18T09:06:34;17.30;99.90
47520;DHT22;33252;48.122;11.538;2022-10-18T09:14:19;17.80;99.90
47520;DHT22;33252;48.122;11.538;2022-10-18T09:17:22;17.70;99.90
47520;DHT22;33252;48.122;11.538;2022-10-18T09:20:02;17.50;99.90
47520;DHT22;33252;48.122;11.538;2022-10-18T09:22:52;17.50;99.90
47520;DHT22;33252;48.122;11.538;2022-10-18T09:25:25;17.60;99.90
47520;DHT22;33252;48.122;11.538;2022-10-18T09:36:00;18.50;99.90
47520;DHT22;33252;48.122;11.538;2022-10-18T09:38:40;18.60;99.80
47520;DHT22;33252;48.122;11.538;2022-10-18T09:41:12;18.60;99.90
47520;DHT22;33252;48.122;11.538;2022-10-18T09:46:24;18.60;99.90
47520;DHT22;33252;48.122;11.538;2022-10-18T09:49:01;18.80;99.90
47520;DHT22;33252;48.122;11.538;2022-10-18T09:51:33;18.90;99.40
47520;DHT22;33252;48.122;11.538;2022-10-18T09:57:03;19.00;99.20
47520;DHT22;33252;48.122;11.538;2022-10-18T09:59:41;18.90;99.60
47520;DHT22;33252;48.122;11.538;2022-10-18T10:02:16;19.00;98.90
47520;DHT22;33252;48.122;11.538;2022-10-18T10:04:42;19.20;98.40
47520;DHT22;33252;48.122;11.538;2022-10-18T10:07:13;19.20;98.50
47520;DHT22;33252;48.122;11.538;2022-10-18T10:10:25;19.20;97.60
47520;DHT22;33252;48.122;11.538;2022-10-18T10:12:34;19.20;98.40
47520;DHT22;33252;48.122;11.538;2022-10-18T10:17:42;19.10;97.90
47520;DHT22;33252;48.122;11.538;2022-10-18T10:20:23;18.90;97.90
47520;DHT22;33252;48.122;11.538;2022-10-18T10:22:51;18.80;98.40
47520;DHT22;33252;48.122;11.538;2022-10-18T10:25:35;18.80;98.60
47520;DHT22;33252;48.122;11.538;2022-10-18T10:28:05;18.80;98.90
47520;DHT22;33252;48.122;11.538;2022-10-18T10:30:34;18.90;98.50
47520;DHT22;33252;48.122;11.538;2022-10-18T10:33:00;19.00;97.90
47520;DHT22;33252;48.122;11.538;2022-10-18T10:37:59;18.90;98.50
47520;DHT22;33252;48.122;11.538;2022-10-18T10:45:37;19.00;98.60
47520;DHT22;33252;48.122;11.538;2022-10-18T10:48:13;19.00;98.90
47520;DHT22;33252;48.122;11.538;2022-10-18T10:51:00;19.20;98.50
47520;DHT22;33252;48.122;11.538;2022-10-18T10:56:22;19.30;98.20
47520;DHT22;33252;48.122;11.538;2022-10-18T10:58:48;19.40;98.50
47520;DHT22;33252;48.122;11.538;2022-10-18T11:01:22;19.30;98.60
47520;DHT22;33252;48.122;11.538;2022-10-18T11:03:54;19.40;97.90
47520;DHT22;33252;48.122;11.538;2022-10-18T11:06:45;19.70;97.50
47520;DHT22;33252;48.122;11.538;2022-10-18T11:12:21;19.80;97.20
47520;DHT22;33252;48.122;11.538;2022-10-18T11:15:02;19.80;97.30
47520;DHT22;33252;48.122;11.538;2022-10-18T11:18:28;19.70;97.60
47520;DHT22;33252;48.122;11.538;2022-10-18T11:20:57;20.10;96.60
47520;DHT22;33252;48.122;11.538;2022-10-18T11:23:29;20.10;96.60
47520;DHT22;33252;48.122;11.538;2022-10-18T11:26:07;20.00;96.40
47520;DHT22;33252;48.122;11.538;2022-10-18T11:39:45;20.00;96.70
47520;DHT22;33252;48.122;11.538;2022-10-18T11:50:57;19.90;97.30
47520;DHT22;33252;48.122;11.538;2022-10-18T11:53:42;20.20;96.70
47520;DHT22;33252;48.122;11.538;2022-10-18T11:56:34;20.20;96.80
47520;DHT22;33252;48.122;11.538;2022-10-18T12:04:22;20.30;96.50
47520;DHT22;33252;48.122;11.538;2022-10-18T12:06:53;20.10;96.60
47520;DHT22;33252;48.122;11.538;2022-10-18T12:09:37;20.30;96.60
47520;DHT22;33252;48.122;11.538;2022-10-18T12:12:27;20.40;96.30
47520;DHT22;33252;48.122;11.538;2022-10-18T12:14:58;20.50;96.50
47520;DHT22;33252;48.122;11.538;2022-10-18T12:17:45;20.40;96.70
47520;DHT22;33252;48.122;11.538;2022-10-18T12:20:42;20.60;96.20
47520;DHT22;33252;48.122;11.538;2022-10-18T12:23:15;20.70;96.80
47520;DHT22;33252;48.122;11.538;2022-10-18T12:25:51;20.80;96.30
47520;DHT22;33252;48.122;11.538;2022-10-18T12:33:54;20.70;97.00
47520;DHT22;33252;48.122;11.538;2022-10-18T12:38:55;21.00;96.50
47520;DHT22;33252;48.122;11.538;2022-10-18T12:41:29;21.30;96.20
47520;DHT22;33252;48.122;11.538;2022-10-18T12:44:53;21.30;95.90
47520;DHT22;33252;48.122;11.538;2022-10-18T12:46:54;21.20;95.10
47520;DHT22;33252;48.122;11.538;2022-10-18T12:49:28;21.20;95.20
47520;DHT22;33252;48.122;11.538;2022-10-18T12:52:05;21.20;95.00
47520;DHT22;33252;48.122;11.538;2022-10-18T12:54:34;21.40;94.60
47520;DHT22;33252;48.122;11.538;2022-10-18T12:57:01;21.70;94.10
47520;DHT22;33252;48.122;11.538;2022-10-18T13:09:24;22.90;91.90
47520;DHT22;33252;48.122;11.538;2022-10-18T13:11:54;22.60;93.10
47520;DHT22;33252;48.122;11.538;2022-10-18T13:19:37;23.10;91.70
47520;DHT22;33252;48.122;11.538;2022-10-18T13:22:33;23.20;91.60
47520;DHT22;33252;48.122;11.538;2022-10-18T13:25:04;22.80;92.00
47520;DHT22;33252;48.122;11.538;2022-10-18T13:27:49;22.60;92.80
47520;DHT22;33252;48.122;11.538;2022-10-18T13:32:57;22.20;92.80
47520;DHT22;33252;48.122;11.538;2022-10-18T13:41:23;21.80;93.10
47520;DHT22;33252;48.122;11.538;2022-10-18T13:43:56;21.70;93.60
47520;DHT22;33252;48.122;11.538;2022-10-18T13:49:04;21.70;93.70
47520;DHT22;33252;48.122;11.538;2022-10-18T14:06:33;21.10;94.70
47520;DHT22;33252;48.122;11.538;2022-10-18T14:09:21;21.00;94.60
47520;DHT22;33252;48.122;11.538;2022-10-18T14:12:20;21.00;95.00
47520;DHT22;33252;48.122;11.538;2022-10-18T14:14:53;20.90;94.50
47520;DHT22;33252;48.122;11.538;2022-10-18T14:17:40;20.80;94.60
47520;DHT22;33252;48.122;11.538;2022-10-18T14:21:03;20.70;94.80
47520;DHT22;33252;48.122;11.538;2022-10-18T14:23:28;20.60;95.10
47520;DHT22;33252;48.122;11.538;2022-10-18T14:26:10;20.50;95.20
47520;DHT22;33252;48.122;11.538;2022-10-18T14:28:37;20.50;95.20
47520;DHT22;33252;48.122;11.538;2022-10-18T14:31:04;20.50;95.30
47520;DHT22;33252;48.122;11.538;2022-10-18T14:33:54;20.50;96.00
47520;DHT22;33252;48.122;11.538;2022-10-18T14:38:55;20.40;95.80
47520;DHT22;33252;48.122;11.538;2022-10-18T14:41:23;20.50;95.70
47520;DHT22;33252;48.122;11.538;2022-10-18T14:43:50;20.60;95.60
47520;DHT22;33252;48.122;11.538;2022-10-18T14:46:23;20.80;95.60
47520;DHT22;33252;48.122;11.538;2022-10-18T14:48:59;20.90;95.40
47520;DHT22;33252;48.122;11.538;2022-10-18T14:51:27;20.90;95.50
47520;DHT22;33252;48.122;11.538;2022-10-18T14:53:54;20.70;96.00
47520;DHT22;33252;48.122;11.538;2022-10-18T14:56:29;20.60;96.20
47520;DHT22;33252;48.122;11.538;2022-10-18T14:59:01;20.60;96.00
47520;DHT22;33252;48.122;11.538;2022-10-18T15:01:30;20.60;96.20
47520;DHT22;33252;48.122;11.538;2022-10-18T15:04:03;20.50;96.30
47520;DHT22;33252;48.122;11.538;2022-10-18T15:06:31;20.50;96.30
47520;DHT22;33252;48.122;11.538;2022-10-18T15:08:58;20.40;96.60
47520;DHT22;33252;48.122;11.538;2022-10-18T15:11:26;20.40;96.40
47520;DHT22;33252;48.122;11.538;2022-10-18T15:14:13;20.30;96.50
47520;DHT22;33252;48.122;11.538;2022-10-18T15:16:40;20.30;96.80
47520;DHT22;33252;48.122;11.538;2022-10-18T15:22:02;20.20;96.40
47520;DHT22;33252;48.122;11.538;2022-10-18T15:24:32;20.10;96.40
47520;DHT22;33252;48.122;11.538;2022-10-18T15:27:06;20.00;96.60
47520;DHT22;33252;48.122;11.538;2022-10-18T15:29:33;20.10;96.60
47520;DHT22;33252;48.122;11.538;2022-10-18T15:32:24;20.00;96.90
47520;DHT22;33252;48.122;11.538;2022-10-18T15:34:51;19.90;97.10
47520;DHT22;33252;48.122;11.538;2022-10-18T15:37:30;19.90;96.70
47520;DHT22;33252;48.122;11.538;2022-10-18T15:40:17;19.90;96.90
47520;DHT22;33252;48.122;11.538;2022-10-18T15:42:43;19.80;97.10
47520;DHT22;33252;48.122;11.538;2022-10-18T15:50:43;19.70;97.30
47520;DHT22;33252;48.122;11.538;2022-10-18T15:58:20;19.60;97.70
47520;DHT22;33252;48.122;11.538;2022-10-18T16:00:47;19.60;97.80
47520;DHT22;33252;48.122;11.538;2022-10-18T16:03:15;19.50;98.10
47520;DHT22;33252;48.122;11.538;2022-10-18T16:05:42;19.40;98.00
47520;DHT22;33252;48.122;11.538;2022-10-18T16:08:23;19.40;98.00
47520;DHT22;33252;48.122;11.538;2022-10-18T16:10:50;19.40;98.00
47520;DHT22;33252;48.122;11.538;2022-10-18T16:13:16;19.40;98.10
47520;DHT22;33252;48.122;11.538;2022-10-18T16:15:42;19.30;98.10
47520;DHT22;33252;48.122;11.538;2022-10-18T16:18:13;19.30;98.20
47520;DHT22;33252;48.122;11.538;2022-10-18T16:20:39;19.30;98.40
47520;DHT22;33252;48.122;11.538;2022-10-18T16:23:25;19.20;98.50
47520;DHT22;33252;48.122;11.538;2022-10-18T16:25:51;19.20;99.40
47520;DHT22;33252;48.122;11.538;2022-10-18T16:28:22;19.10;99.80
47520;DHT22;33252;48.122;11.538;2022-10-18T16:31:06;19.00;99.90
47520;DHT22;33252;48.122;11.538;2022-10-18T16:33:32;19.00;99.90
47520;DHT22;33252;48.122;11.538;2022-10-18T16:35:58;18.90;99.90
47520;DHT22;33252;48.122;11.538;2022-10-18T16:38:32;18.80;99.90
47520;DHT22;33252;48.122;11.538;2022-10-18T16:40:58;18.70;99.90
47520;DHT22;33252;48.122;11.538;2022-10-18T16:43:24;18.50;99.90
47520;DHT22;33252;48.122;11.538;2022-10-18T16:45:51;18.50;99.90
47520;DHT22;33252;48.122;11.538;2022-10-18T16:48:20;18.40;99.90
47520;DHT22;33252;48.122;11.538;2022-10-18T16:50:46;18.30;99.90
47520;DHT22;33252;48.122;11.538;2022-10-18T16:53:12;18.20;99.90
47520;DHT22;33252;48.122;11.538;2022-10-18T16:55:39;18.10;99.90
47520;DHT22;33252;48.122;11.538;2022-10-18T16:58:06;18.10;99.90
47520;DHT22;33252;48.122;11.538;2022-10-18T17:00:32;18.00;99.90
47520;DHT22;33252;48.122;11.538;2022-10-18T17:02:58;17.80;99.90
47520;DHT22;33252;48.122;11.538;2022-10-18T17:05:24;17.80;99.90
47520;DHT22;33252;48.122;11.538;2022-10-18T17:07:50;17.80;99.90
47520;DHT22;33252;48.122;11.538;2022-10-18T17:10:19;17.70;99.90
47520;DHT22;33252;48.122;11.538;2022-10-18T17:12:45;17.50;99.90
47520;DHT22;33252;48.122;11.538;2022-10-18T17:15:12;17.50;99.90
47520;DHT22;33252;48.122;11.538;2022-10-18T17:17:37;17.40;99.90
47520;DHT22;33252;48.122;11.538;2022-10-18T17:20:06;17.30;99.90
47520;DHT22;33252;48.122;11.538;2022-10-18T17:22:32;17.30;99.90
47520;DHT22;33252;48.122;11.538;2022-10-18T17:25:01;17.30;99.90
47520;DHT22;33252;48.122;11.538;2022-10-18T17:27:29;17.30;99.90
47520;DHT22;33252;48.122;11.538;2022-10-18T17:29:55;17.30;99.90
47520;DHT22;33252;48.122;11.538;2022-10-18T17:32:21;17.30;99.90
47520;DHT22;33252;48.122;11.538;2022-10-18T17:34:47;17.20;99.90
47520;DHT22;33252;48.122;11.538;2022-10-18T17:37:13;17.10;99.90
47520;DHT22;33252;48.122;11.538;2022-10-18T17:39:38;17.10;99.90
47520;DHT22;33252;48.122;11.538;2022-10-18T17:42:04;17.10;99.90
47520;DHT22;33252;48.122;11.538;2022-10-18T17:44:30;17.00;99.90
47520;DHT22;33252;48.122;11.538;2022-10-18T17:46:55;17.00;99.90
47520;DHT22;33252;48.122;11.538;2022-10-18T17:49:21;17.00;99.90
47520;DHT22;33252;48.122;11.538;2022-10-18T17:51:46;17.00;99.90
47520;DHT22;33252;48.122;11.538;2022-10-18T17:54:12;16.90;99.90
47520;DHT22;33252;48.122;11.538;2022-10-18T17:56:40;17.00;99.90
47520;DHT22;33252;48.122;11.538;2022-10-18T17:59:06;17.00;99.90
47520;DHT22;33252;48.122;11.538;2022-10-18T18:01:32;16.90;99.90
47520;DHT22;33252;48.122;11.538;2022-10-18T18:03:59;16.90;99.90
47520;DHT22;33252;48.122;11.538;2022-10-18T18:06:31;16.90;99.90
47520;DHT22;33252;48.122;11.538;2022-10-18T18:09:00;16.80;99.90
47520;DHT22;33252;48.122;11.538;2022-10-18T18:11:29;16.80;99.90